createdAt,value
2022-12-11T00:00:12.220Z,47.44
2022-12-11T00:02:40.462Z,46.76
2022-12-11T00:05:45.749Z,46.77
2022-12-11T00:08:14.114Z,47.26
2022-12-11T00:10:42.273Z,46.26
2022-12-11T00:13:39.373Z,46.7
2022-12-11T00:16:07.666Z,46.05
2022-12-11T00:19:12.954Z,46.06
2022-12-11T00:21:41.181Z,45.83
2022-12-11T00:24:09.452Z,46.8
2022-12-11T00:27:14.707Z,46.79
2022-12-11T00:29:42.987Z,46.92
2022-12-11T00:32:11.327Z,47.05
2022-12-11T00:35:16.552Z,47.13
2022-12-11T00:37:44.782Z,46.91
2022-12-11T00:40:13.053Z,46.86
2022-12-11T00:42:41.254Z,47.14
2022-12-11T00:45:09.743Z,46.23
2022-12-11T00:48:14.841Z,47.56
2022-12-11T00:50:43.144Z,46.7
2022-12-11T00:53:11.349Z,46.56
2022-12-11T00:55:39.586Z,46.79
2022-12-11T00:58:07.877Z,46.99
2022-12-11T01:01:13.195Z,46.85
2022-12-11T01:03:41.365Z,47.41
2022-12-11T01:06:09.641Z,46.82
2022-12-11T01:09:51.993Z,46.87
2022-12-11T01:14:11.443Z,46.85
2022-12-11T01:17:08.563Z,46.88
2022-12-11T01:20:13.847Z,46.86
2022-12-11T01:22:42.122Z,46.79
2022-12-11T01:25:10.685Z,46.7
2022-12-11T01:28:15.657Z,46.3
2022-12-11T01:30:44.018Z,46.57
2022-12-11T01:33:12.153Z,45.18
2022-12-11T01:35:40.388Z,47.16
2022-12-11T01:38:45.686Z,45.73
2022-12-11T01:41:13.991Z,45.72
2022-12-11T01:43:42.211Z,45.75
2022-12-11T01:46:10.454Z,45.69
2022-12-11T01:49:15.737Z,45.95
2022-12-11T01:51:43.962Z,46.02
2022-12-11T01:54:12.254Z,46.33
2022-12-11T01:56:40.493Z,46.34
2022-12-11T01:59:08.781Z,46.3
2022-12-11T02:02:14.063Z,45.83
2022-12-11T02:05:56.422Z,45.82
2022-12-11T02:09:01.736Z,45.76
2022-12-11T02:12:07.037Z,45.12
2022-12-11T02:15:04.178Z,45.05
2022-12-11T02:18:09.478Z,45.24
2022-12-11T02:21:14.773Z,45.34
2022-12-11T02:23:43.003Z,45.22
2022-12-11T02:26:11.274Z,45.63
2022-12-11T02:29:16.597Z,45.69
2022-12-11T02:31:44.884Z,45.51
2022-12-11T02:34:50.157Z,45.53
2022-12-11T02:37:55.464Z,46.23
2022-12-11T02:41:00.759Z,45.65
2022-12-11T02:44:06.070Z,44.85
2022-12-11T02:47:11.364Z,45.69
2022-12-11T02:50:16.667Z,45.06
2022-12-11T02:52:44.902Z,45.82
2022-12-11T02:55:13.305Z,45.4
2022-12-11T02:57:41.425Z,45.09
2022-12-11T03:00:09.675Z,44.16
2022-12-11T03:03:52.013Z,45.64
2022-12-11T03:06:57.372Z,45.8
2022-12-11T03:10:02.665Z,45.81
2022-12-11T03:13:07.959Z,46.1
2022-12-11T03:16:05.126Z,46.28
2022-12-11T03:19:10.377Z,45.74
2022-12-11T03:22:15.714Z,45.54
2022-12-11T03:24:43.934Z,45.61
2022-12-11T03:27:12.205Z,45.38
2022-12-11T03:29:40.435Z,45.35
2022-12-11T03:32:08.661Z,45.35
2022-12-11T03:35:14.241Z,44.87
2022-12-11T03:37:42.269Z,45.09
2022-12-11T03:40:10.489Z,44.9
2022-12-11T03:43:15.801Z,45.09
2022-12-11T03:45:44.075Z,45.01
2022-12-11T03:48:12.301Z,45.34
2022-12-11T03:50:40.510Z,45.04
2022-12-11T03:53:08.808Z,45.84
2022-12-11T03:56:14.084Z,45.66
2022-12-11T03:58:42.367Z,45.64
2022-12-11T04:01:10.611Z,45.77
2022-12-11T04:04:15.932Z,45.94
2022-12-11T04:06:44.137Z,45.81
2022-12-11T04:09:12.409Z,45.83
2022-12-11T04:11:40.653Z,46.16
2022-12-11T04:15:14.876Z,46.31
2022-12-11T04:17:43.137Z,46.19
2022-12-11T04:20:11.326Z,46.16
2022-12-11T04:22:39.537Z,46.1
2022-12-11T04:25:08.044Z,46.09
2022-12-11T04:28:13.108Z,46.07
2022-12-11T04:30:41.574Z,45.65
2022-12-11T04:33:46.673Z,46.38
2022-12-11T04:36:14.927Z,46.64
2022-12-11T04:38:43.181Z,46.69
2022-12-11T04:41:11.412Z,46.32
2022-12-11T04:44:16.708Z,46.61
2022-12-11T04:46:44.989Z,46.49
2022-12-11T04:49:13.243Z,46.45
2022-12-11T04:51:41.519Z,46.39
2022-12-11T04:54:09.742Z,46.3
2022-12-11T04:57:52.117Z,45.85
2022-12-11T05:00:57.409Z,46.03
2022-12-11T05:04:02.706Z,46.07
2022-12-11T05:07:08.040Z,46.09
2022-12-11T05:10:13.343Z,46.31
2022-12-11T05:12:41.605Z,46.35
2022-12-11T05:15:01.606Z,46.48
2022-12-11T05:18:06.954Z,46.12
2022-12-11T05:21:12.242Z,46.44
2022-12-11T05:23:40.478Z,46.59
2022-12-11T05:26:08.739Z,46.1
2022-12-11T05:29:14.109Z,46.62
2022-12-11T05:31:42.338Z,46.25
2022-12-11T05:34:10.522Z,46.08
2022-12-11T05:37:15.857Z,46.02
2022-12-11T05:39:44.108Z,46.03
2022-12-11T05:42:12.358Z,46.35
2022-12-11T05:44:40.575Z,46.09
2022-12-11T05:47:08.891Z,46.41
2022-12-11T05:50:14.143Z,46.65
2022-12-11T05:52:42.380Z,46.6
2022-12-11T05:55:10.801Z,46.47
2022-12-11T05:58:15.981Z,46.55
2022-12-11T06:00:44.195Z,46.4
2022-12-11T06:03:12.539Z,46.46
2022-12-11T06:05:40.696Z,46.46
2022-12-11T06:08:09.024Z,46.29
2022-12-11T06:11:15.659Z,46.25
2022-12-11T06:13:42.516Z,46.29
2022-12-11T06:16:02.660Z,46.29
2022-12-11T06:19:07.834Z,46.83
2022-12-11T06:22:13.170Z,47.09
2022-12-11T06:24:41.426Z,45.91
2022-12-11T06:27:09.664Z,46.56
2022-12-11T06:30:52.252Z,46.95
2022-12-11T06:33:57.377Z,46.78
2022-12-11T06:37:02.656Z,46.44
2022-12-11T06:40:07.968Z,46.08
2022-12-11T06:43:13.283Z,46.17
2022-12-11T06:45:41.555Z,46.03
2022-12-11T06:48:46.838Z,45.9
2022-12-11T06:51:15.097Z,46.08
2022-12-11T06:53:43.324Z,46.14
2022-12-11T06:56:11.578Z,46.29
2022-12-11T06:59:16.861Z,46.69
2022-12-11T07:01:45.140Z,46.63
2022-12-11T07:04:13.373Z,46.65
2022-12-11T07:06:41.667Z,46.91
2022-12-11T07:09:09.849Z,46.66
2022-12-11T07:12:15.187Z,46.65
2022-12-11T07:15:49.340Z,46.58
2022-12-11T07:18:57.788Z,46.42
2022-12-11T07:21:59.966Z,46.31
2022-12-11T07:25:05.300Z,46.19
2022-12-11T07:28:15.191Z,46.22
2022-12-11T07:31:15.969Z,46.14
2022-12-11T07:33:44.167Z,46.33
2022-12-11T07:36:12.382Z,46.47
2022-12-11T07:38:40.603Z,46.52
2022-12-11T07:41:08.918Z,46.86
2022-12-11T07:44:14.190Z,46.9
2022-12-11T07:46:42.458Z,46.67
2022-12-11T07:49:10.664Z,46.8
2022-12-11T07:52:15.997Z,46.62
2022-12-11T07:54:44.280Z,46.75
2022-12-11T07:57:14.266Z,46.58
2022-12-11T07:59:40.743Z,46.54
2022-12-11T08:02:09.040Z,46.62
2022-12-11T08:05:14.349Z,46.41
2022-12-11T08:07:42.564Z,46.6
2022-12-11T08:10:10.779Z,46.68
2022-12-11T08:13:16.096Z,46.75
2022-12-11T08:16:21.452Z,46.8
2022-12-11T08:18:41.456Z,46.82
2022-12-11T08:21:09.686Z,46.39
2022-12-11T08:24:15.052Z,46.78
2022-12-11T08:26:43.260Z,46.97
2022-12-11T08:29:11.547Z,46.83
2022-12-11T08:32:16.819Z,46.91
2022-12-11T08:34:45.098Z,46.66
2022-12-11T08:37:13.317Z,46.03
2022-12-11T08:39:41.561Z,46.68
2022-12-11T08:42:09.807Z,46.23
2022-12-11T08:45:15.131Z,46.19
2022-12-11T08:47:43.386Z,46.31
2022-12-11T08:50:11.617Z,46.67
2022-12-11T08:52:39.873Z,46.81
2022-12-11T08:55:08.335Z,46.9
2022-12-11T08:58:13.420Z,46.51
2022-12-11T09:00:41.693Z,46.11
2022-12-11T09:03:12.743Z,46.73
2022-12-11T09:06:15.244Z,46.51
2022-12-11T09:08:47.254Z,46.45
2022-12-11T09:11:11.726Z,46.39
2022-12-11T09:14:17.027Z,46.13
2022-12-11T09:17:14.153Z,46.05
2022-12-11T09:19:42.392Z,46.63
2022-12-11T09:22:10.651Z,46.67
2022-12-11T09:25:15.913Z,46.76
2022-12-11T09:27:44.185Z,46.6
2022-12-11T09:30:12.533Z,46.68
2022-12-11T09:32:40.685Z,46.79
2022-12-11T09:35:09.180Z,46.86
2022-12-11T09:38:14.439Z,47.04
2022-12-11T09:40:42.521Z,46.92
2022-12-11T09:43:10.726Z,46.84
2022-12-11T09:46:16.091Z,46.99
2022-12-11T09:48:44.290Z,46.93
2022-12-11T09:51:12.551Z,46.74
2022-12-11T09:53:40.783Z,46.55
2022-12-11T09:56:09.021Z,46.58
2022-12-11T09:59:14.362Z,46.56
2022-12-11T10:04:10.860Z,46.41
2022-12-11T10:07:16.157Z,46.53
2022-12-11T10:09:44.429Z,46.37
2022-12-11T10:12:12.670Z,46.43
2022-12-11T10:14:40.909Z,46.45
2022-12-11T10:17:37.998Z,46.7
2022-12-11T10:20:06.235Z,46.59
2022-12-11T10:23:11.569Z,46.46
2022-12-11T10:25:39.807Z,46.39
2022-12-11T10:28:08.057Z,46.26
2022-12-11T10:31:13.418Z,46.31
2022-12-11T10:33:41.642Z,46.22
2022-12-11T10:36:09.884Z,46.25
2022-12-11T10:39:15.190Z,46.29
2022-12-11T10:41:43.421Z,46.34
2022-12-11T10:44:11.688Z,46.59
2022-12-11T10:46:40.008Z,46.57
2022-12-11T10:49:08.173Z,46.43
2022-12-11T10:52:13.526Z,46.62
2022-12-11T10:54:41.745Z,46.61
2022-12-11T10:57:10.007Z,46.67
2022-12-11T11:00:15.340Z,46.46
2022-12-11T11:02:43.547Z,46.28
2022-12-11T11:05:12.173Z,46.2
2022-12-11T11:07:40.028Z,46.16
2022-12-11T11:10:08.283Z,46.17
2022-12-11T11:13:13.597Z,45.91
2022-12-11T11:15:41.890Z,46
2022-12-11T11:18:01.906Z,46.1
2022-12-11T11:21:07.158Z,46.05
2022-12-11T11:24:12.499Z,46
2022-12-11T11:27:11.508Z,45.95
2022-12-11T11:29:09.008Z,46.08
2022-12-11T11:32:14.318Z,46.14
2022-12-11T11:34:42.545Z,46.27
2022-12-11T11:37:10.775Z,46.08
2022-12-11T11:40:16.124Z,45.97
2022-12-11T11:42:44.333Z,45.49
2022-12-11T11:45:12.829Z,45.72
2022-12-11T11:47:40.848Z,45.68
2022-12-11T11:50:09.097Z,45.75
2022-12-11T11:53:14.374Z,45.13
2022-12-11T11:55:42.641Z,45.27
2022-12-11T11:58:10.883Z,45.4
2022-12-11T12:01:16.248Z,45.33
2022-12-11T12:03:44.421Z,45.33
2022-12-11T12:06:15.201Z,45.34
2022-12-11T12:08:40.942Z,45.56
2022-12-11T12:11:09.200Z,46.14
2022-12-11T12:14:43.462Z,46.11
2022-12-11T12:17:53.579Z,45.88
2022-12-11T12:20:54.015Z,45.78
2022-12-11T12:23:59.292Z,45.55
2022-12-11T12:27:13.510Z,45.17
2022-12-11T12:30:09.902Z,44.91
2022-12-11T12:33:15.232Z,44.97
2022-12-11T12:35:43.497Z,44.88
2022-12-11T12:38:11.747Z,45.29
2022-12-11T12:41:17.040Z,45.35
2022-12-11T12:43:45.334Z,45.4
2022-12-11T12:46:13.601Z,45.37
2022-12-11T12:48:41.771Z,45.57
2022-12-11T12:51:09.989Z,45.57
2022-12-11T12:54:15.329Z,45.43
2022-12-11T12:56:43.579Z,45.34
2022-12-11T12:59:11.778Z,45.28
2022-12-11T13:01:40.046Z,45.42
2022-12-11T13:04:16.737Z,45.37
2022-12-11T13:07:13.612Z,45.42
2022-12-11T13:09:41.855Z,45.49
2022-12-11T13:12:10.130Z,45.42
2022-12-11T13:15:15.449Z,45.39
2022-12-11T13:18:20.725Z,45.31
2022-12-11T13:20:40.750Z,45.5
2022-12-11T13:23:09.031Z,45.75
2022-12-11T13:26:14.332Z,45.78
2022-12-11T13:28:42.597Z,45.61
2022-12-11T13:31:10.824Z,45.69
2022-12-11T13:33:39.056Z,45.81
2022-12-11T13:36:11.218Z,45.95
2022-12-11T13:39:12.621Z,45.81
2022-12-11T13:41:40.862Z,45.48
2022-12-11T13:44:09.110Z,45.45
2022-12-11T13:47:14.448Z,45.5
2022-12-11T13:49:42.720Z,45.73
2022-12-11T13:52:10.943Z,45.77
2022-12-11T13:55:16.293Z,45.94
2022-12-11T13:57:44.487Z,45.83
2022-12-11T14:00:17.182Z,45.65
2022-12-11T14:02:41.049Z,45.8
2022-12-11T14:05:09.323Z,46.11
2022-12-11T14:08:14.630Z,46.09
2022-12-11T14:10:42.785Z,46.19
2022-12-11T14:13:11.001Z,46.09
2022-12-11T14:16:16.388Z,46.07
2022-12-11T14:18:36.378Z,46.15
2022-12-11T14:21:04.661Z,46.06
2022-12-11T14:24:09.949Z,45.86
2022-12-11T14:27:15.282Z,45.8
2022-12-11T14:29:43.521Z,45.82
2022-12-11T14:32:11.733Z,45.92
2022-12-11T14:34:40.005Z,45.72
2022-12-11T14:37:08.281Z,46.16
2022-12-11T14:40:13.768Z,46.12
2022-12-11T14:42:41.800Z,46.1
2022-12-11T14:45:10.067Z,46.33
2022-12-11T14:48:15.359Z,46.47
2022-12-11T14:50:43.633Z,46.35
2022-12-11T14:53:11.879Z,46.57
2022-12-11T14:55:40.115Z,46.68
2022-12-11T14:58:08.394Z,46.66
2022-12-11T15:01:13.667Z,46.73
2022-12-11T15:03:41.961Z,47.02
2022-12-11T15:06:10.216Z,46.79
2022-12-11T15:09:15.445Z,46.58
2022-12-11T15:11:43.757Z,46.51
2022-12-11T15:14:11.990Z,46.42
2022-12-11T15:16:40.258Z,46.58
2022-12-11T15:19:00.261Z,46.72
2022-12-11T15:22:05.571Z,46.82
2022-12-11T15:25:10.868Z,46.84
2022-12-11T15:27:39.141Z,46.88
2022-12-11T15:30:07.379Z,47.15
2022-12-11T15:33:12.701Z,47.04
2022-12-11T15:35:40.959Z,47.12
2022-12-11T15:38:09.223Z,47.24
2022-12-11T15:41:14.493Z,46.86
2022-12-11T15:43:42.734Z,47.06
2022-12-11T15:46:11.068Z,46.99
2022-12-11T15:49:16.270Z,46.99
2022-12-11T15:51:44.520Z,46.95
2022-12-11T15:54:12.802Z,46.71
2022-12-11T15:56:41.031Z,46.82
2022-12-11T15:59:09.287Z,46.94
2022-12-11T16:02:14.577Z,46.97
2022-12-11T16:04:42.871Z,47.02
2022-12-11T16:07:11.089Z,47.08
2022-12-11T16:10:16.377Z,47.09
2022-12-11T16:12:44.707Z,47.15
2022-12-11T16:15:15.348Z,47.3
2022-12-11T16:17:41.128Z,47.4
2022-12-11T16:20:09.442Z,47.38
2022-12-11T16:23:06.488Z,47.55
2022-12-11T16:26:11.825Z,47.33
2022-12-11T16:28:40.035Z,47.58
2022-12-11T16:31:08.364Z,47.09
2022-12-11T16:34:13.617Z,47.2
2022-12-11T16:36:41.844Z,47.09
2022-12-11T16:39:10.087Z,47.26
2022-12-11T16:42:15.446Z,47.2
2022-12-11T16:44:44.264Z,47.21
2022-12-11T16:47:11.943Z,47.18
2022-12-11T16:50:17.218Z,47.51
2022-12-11T16:52:45.467Z,47.55
2022-12-11T16:55:14.143Z,47.56
2022-12-11T16:57:41.965Z,47.65
2022-12-11T17:00:10.369Z,47.58
2022-12-11T17:03:15.531Z,47.4
2022-12-11T17:05:43.777Z,47.42
2022-12-11T17:08:12.036Z,47.38
2022-12-11T17:10:40.255Z,46.82
2022-12-11T17:13:08.531Z,47.1
2022-12-11T17:16:13.876Z,46.97
2022-12-11T17:19:47.948Z,46.91
2022-12-11T17:22:16.254Z,46.97
2022-12-11T17:24:44.492Z,46.96
2022-12-11T17:27:12.714Z,47.19
2022-12-11T17:29:40.967Z,47.27
2022-12-11T17:32:09.229Z,47.45
2022-12-11T17:35:14.706Z,47.49
2022-12-11T17:37:42.803Z,47.37
2022-12-11T17:40:11.003Z,47.32
2022-12-11T17:43:16.355Z,47.42
2022-12-11T17:45:44.588Z,47.38
2022-12-11T17:48:12.833Z,47.29
2022-12-11T17:50:41.075Z,46.92
2022-12-11T17:53:09.295Z,46.92
2022-12-11T17:56:14.650Z,47.13
2022-12-11T17:58:42.898Z,47.15
2022-12-11T18:01:11.132Z,46.95
2022-12-11T18:03:39.430Z,47.07
2022-12-11T18:06:07.673Z,47.24
2022-12-11T18:09:12.963Z,47.58
2022-12-11T18:11:41.197Z,47.54
2022-12-11T18:14:13.788Z,47.5
2022-12-11T18:17:14.728Z,47.65
2022-12-11T18:20:11.849Z,47.68
2022-12-11T18:22:40.121Z,47.51
2022-12-11T18:25:09.820Z,47.37
2022-12-11T18:28:13.672Z,47.24
2022-12-11T18:30:41.939Z,47.23
2022-12-11T18:33:10.180Z,47.27
2022-12-11T18:36:15.442Z,47.24
2022-12-11T18:38:43.700Z,47.16
2022-12-11T18:41:11.982Z,47.13
2022-12-11T18:43:40.202Z,47.16
2022-12-11T18:46:08.498Z,47.16
2022-12-11T18:49:13.776Z,47.29
2022-12-11T18:51:42.045Z,47.28
2022-12-11T18:54:10.245Z,47.37
2022-12-11T18:57:15.578Z,47.03
2022-12-11T18:59:43.811Z,47.22
2022-12-11T19:02:12.168Z,46.92
2022-12-11T19:04:40.336Z,47.11
2022-12-11T19:07:45.670Z,47.1
2022-12-11T19:10:13.920Z,47.14
2022-12-11T19:12:42.108Z,46.83
2022-12-11T19:15:10.716Z,46.65
2022-12-11T19:18:15.679Z,46.79
2022-12-11T19:20:48.400Z,46.6
2022-12-11T19:23:03.962Z,46.99
2022-12-11T19:26:09.304Z,46.98
2022-12-11T19:29:14.583Z,47
2022-12-11T19:31:42.913Z,47.07
2022-12-11T19:34:11.071Z,47.05
2022-12-11T19:37:16.458Z,47
2022-12-11T19:39:44.665Z,47.14
2022-12-11T19:42:12.928Z,46.86
2022-12-11T19:44:41.145Z,46.92
2022-12-11T19:47:09.452Z,46.87
2022-12-11T19:50:14.691Z,46.91
2022-12-11T19:52:45.920Z,46.96
2022-12-11T19:55:11.461Z,47.08
2022-12-11T19:57:39.427Z,46.97
2022-12-11T20:00:07.674Z,47.02
2022-12-11T20:03:12.972Z,47.2
2022-12-11T20:05:41.215Z,47.19
2022-12-11T20:08:35.521Z,47.25
2022-12-11T20:11:18.198Z,47.29
2022-12-11T20:13:43.044Z,47.19
2022-12-11T20:16:11.345Z,47.03
2022-12-11T20:18:39.519Z,47.36
2022-12-11T20:20:59.606Z,47.04
2022-12-11T20:24:04.936Z,46.9
2022-12-11T20:27:10.199Z,46.88
2022-12-11T20:30:15.490Z,46.87
2022-12-11T20:32:43.751Z,46.82
2022-12-11T20:35:12.201Z,47.02
2022-12-11T20:37:40.244Z,47.03
2022-12-11T20:40:08.501Z,47.06
2022-12-11T20:43:13.791Z,47.29
2022-12-11T20:45:42.100Z,47.31
2022-12-11T20:48:10.305Z,47.63
2022-12-11T20:51:17.589Z,47.68
2022-12-11T20:53:43.893Z,47.81
2022-12-11T20:56:12.140Z,47.87
2022-12-11T20:58:40.363Z,47.28
2022-12-11T21:01:45.728Z,47.49
2022-12-11T21:04:13.896Z,47.29
2022-12-11T21:06:42.205Z,47.4
2022-12-11T21:09:10.414Z,47.65
2022-12-11T21:12:15.717Z,47.83
2022-12-11T21:14:43.958Z,47.69
2022-12-11T21:17:12.190Z,47.75
2022-12-11T21:19:40.442Z,47.75
2022-12-11T21:22:08.678Z,47.8
2022-12-11T21:25:05.800Z,47.87
2022-12-11T21:28:11.168Z,47.81
2022-12-11T21:31:16.501Z,47.51
2022-12-11T21:33:44.681Z,47.71
2022-12-11T21:36:12.945Z,47.19
2022-12-11T21:38:41.177Z,47.29
2022-12-11T21:41:09.423Z,47.35
2022-12-11T21:45:25.760Z,47
2022-12-11T21:46:43.047Z,47.2
2022-12-11T21:49:11.221Z,47.03
2022-12-11T21:51:42.621Z,47.21
2022-12-11T21:54:07.743Z,47.35
2022-12-11T21:57:13.058Z,47.47
2022-12-11T21:59:41.328Z,47.72
2022-12-11T22:02:09.578Z,47.63
2022-12-11T22:05:15.023Z,47.02
2022-12-11T22:07:43.084Z,46.76
2022-12-11T22:10:11.443Z,45.28
2022-12-11T22:13:16.625Z,44.7
2022-12-11T22:15:44.881Z,44.71
2022-12-11T22:18:14.176Z,45
2022-12-11T22:20:41.398Z,47.5
2022-12-11T22:23:01.445Z,45.82
2022-12-11T22:26:43.832Z,46.06
2022-12-11T22:29:12.049Z,46.16
2022-12-11T22:31:40.314Z,45.82
2022-12-11T22:34:45.640Z,46.82
2022-12-11T22:37:13.892Z,46.84
2022-12-11T22:39:42.136Z,46.71
2022-12-11T22:42:10.425Z,46.15
2022-12-11T22:45:15.679Z,46.2
2022-12-11T22:47:43.951Z,46.18
2022-12-11T22:50:12.154Z,46.02
2022-12-11T22:52:40.432Z,46.04
2022-12-11T22:55:08.643Z,45.88
2022-12-11T22:58:17.298Z,45.76
2022-12-11T23:00:42.259Z,45.83
2022-12-11T23:03:10.551Z,45.72
2022-12-11T23:06:15.765Z,45.59
2022-12-11T23:08:44.178Z,45.6
2022-12-11T23:11:12.261Z,45.81
2022-12-11T23:13:40.501Z,45.75
2022-12-11T23:16:08.761Z,44.39
2022-12-11T23:19:14.090Z,44.88
2022-12-11T23:22:19.369Z,44.64
2022-12-11T23:24:39.454Z,44.37
2022-12-11T23:27:07.701Z,44.33
2022-12-11T23:30:12.986Z,44.41
2022-12-11T23:32:41.245Z,44.18
2022-12-11T23:38:15.122Z,44.21
2022-12-11T23:40:43.037Z,44.49
2022-12-11T23:43:11.270Z,44.42
2022-12-11T23:46:16.690Z,44.15
2022-12-11T23:48:44.853Z,44.26
2022-12-11T23:51:13.138Z,44.52
2022-12-11T23:53:41.334Z,46.62
2022-12-11T23:56:46.643Z,44.85
2022-12-11T23:59:14.888Z,44.62
